Time;durP1;ratioP1;P1;durP2;ratioP2;P2;SDS_P1;SDS_P2;PMS_P1;PMS_P2;Temp;Humidity;BMP_temperature;BMP_pressure;BME280_temperature;BME280_humidity;BME280_pressure;Samples;Min_cycle;Max_cycle;Signal;HPM_P1;HPM_P2
2023/06/11 00:01:57;;;;;;;7.60;5.53;;;18.50;99.90;;;;;;5115113;28;20066;-68
2023/06/11 00:04:27;;;;;;;7.38;6.13;;;18.50;99.90;;;;;;5115842;28;20484;-68
2023/06/11 00:06:54;;;;;;;9.93;5.83;;;18.50;99.90;;;;;;5116511;28;20030;-68
2023/06/11 00:09:22;;;;;;;7.63;6.18;;;18.50;99.90;;;;;;5115706;28;20031;-68
2023/06/11 00:11:47;;;;;;;8.57;6.43;;;18.50;99.90;;;;;;5124834;27;20102;-68
2023/06/11 00:14:13;;;;;;;8.98;6.13;;;18.40;99.90;;;;;;5136199;27;20098;-68
2023/06/11 00:16:40;;;;;;;6.45;5.75;;;18.50;99.90;;;;;;5136813;27;20376;-68
2023/06/11 00:19:06;;;;;;;5.93;5.32;;;18.40;99.90;;;;;;5136404;27;20023;-68
2023/06/11 00:21:32;;;;;;;8.38;5.75;;;18.40;99.90;;;;;;5136458;27;20383;-68
2023/06/11 00:23:59;;;;;;;7.35;5.82;;;18.40;99.90;;;;;;5136598;27;20023;-68
2023/06/11 00:26:25;;;;;;;6.30;5.50;;;18.40;99.90;;;;;;5136258;27;20115;-68
2023/06/11 00:28:51;;;;;;;8.43;6.15;;;18.40;99.90;;;;;;5136496;27;20084;-68
2023/06/11 00:31:18;;;;;;;10.32;6.00;;;18.30;99.90;;;;;;5136147;27;20027;-68
2023/06/11 00:33:43;;;;;;;9.63;6.40;;;18.30;99.90;;;;;;5123491;27;20027;-69
2023/06/11 00:36:09;;;;;;;6.35;5.72;;;18.30;99.90;;;;;;5115511;28;20024;-66
2023/06/11 00:38:35;;;;;;;11.32;5.93;;;18.30;99.90;;;;;;5115937;28;20106;-68
2023/06/11 00:41:01;;;;;;;6.45;5.63;;;18.40;99.90;;;;;;5118320;27;20529;-68
2023/06/11 00:43:28;;;;;;;7.07;5.55;;;18.30;99.90;;;;;;5135918;27;20106;-68
2023/06/11 00:45:54;;;;;;;8.75;6.20;;;18.30;99.90;;;;;;5136109;27;20054;-68
2023/06/11 00:48:21;;;;;;;10.32;5.63;;;18.30;99.90;;;;;;5135738;27;20469;-68
2023/06/11 00:50:51;;;;;;;6.22;5.35;;;18.30;99.90;;;;;;5136053;27;20081;-68
2023/06/11 00:53:18;;;;;;;7.43;6.10;;;18.30;99.90;;;;;;5135801;27;20026;-68
2023/06/11 00:55:45;;;;;;;6.20;5.40;;;18.30;99.90;;;;;;5136017;27;20027;-68
2023/06/11 00:58:15;;;;;;;8.73;5.80;;;18.20;99.90;;;;;;5135588;27;20110;-68
2023/06/11 01:00:49;;;;;;;7.68;6.60;;;18.20;99.90;;;;;;5136251;27;20027;-68
2023/06/11 01:03:21;;;;;;;9.40;5.63;;;18.20;99.90;;;;;;5135341;27;20473;-68
2023/06/11 01:05:52;;;;;;;5.93;5.03;;;18.10;99.90;;;;;;5135904;27;20459;-68
2023/06/11 01:08:19;;;;;;;5.45;4.90;;;18.10;99.90;;;;;;5135499;27;20114;-68
2023/06/11 01:10:45;;;;;;;7.57;5.47;;;18.00;99.90;;;;;;5135757;27;20366;-68
2023/06/11 01:13:11;;;;;;;8.57;5.25;;;18.00;99.90;;;;;;5134842;27;20038;-68
2023/06/11 01:15:36;;;;;;;6.53;5.28;;;18.00;99.90;;;;;;5135438;27;20027;-68
2023/06/11 01:18:05;;;;;;;6.97;5.15;;;18.00;99.90;;;;;;5136001;27;20483;-68
2023/06/11 01:20:41;;;;;;;6.70;5.88;;;18.00;99.90;;;;;;5135193;27;20030;-68
2023/06/11 01:23:15;;;;;;;7.90;5.80;;;17.90;99.90;;;;;;5135646;27;20023;-68
2023/06/11 01:26:14;;;;;;;8.75;6.30;;;17.90;99.90;;;;;;5135230;27;20110;-68
2023/06/11 01:28:41;;;;;;;6.63;5.70;;;17.90;99.90;;;;;;5135080;27;20036;-68
2023/06/11 01:31:14;;;;;;;9.80;6.15;;;17.80;99.90;;;;;;5135181;27;20475;-68
2023/06/11 01:33:44;;;;;;;6.93;6.22;;;17.80;99.90;;;;;;5135523;27;20027;-68
2023/06/11 01:36:14;;;;;;;6.63;6.03;;;17.80;99.90;;;;;;5134857;27;20057;-68
2023/06/11 01:38:44;;;;;;;9.55;6.25;;;17.70;99.90;;;;;;5116769;27;20382;-68
2023/06/11 01:41:13;;;;;;;9.52;6.97;;;17.70;99.90;;;;;;5134773;27;20027;-68
2023/06/11 01:43:39;;;;;;;7.45;6.30;;;17.60;99.90;;;;;;5135169;27;20080;-66
2023/06/11 01:46:05;;;;;;;13.20;6.35;;;17.60;99.90;;;;;;5135286;27;20039;-67
2023/06/11 01:48:31;;;;;;;11.38;6.28;;;17.50;99.90;;;;;;5134319;27;20031;-67
2023/06/11 01:50:57;;;;;;;8.27;6.47;;;17.60;99.90;;;;;;5135085;27;20031;-68
2023/06/11 01:53:23;;;;;;;6.65;5.95;;;17.50;99.90;;;;;;5134523;27;20073;-67
2023/06/11 01:55:49;;;;;;;6.88;6.07;;;17.50;99.90;;;;;;5135182;27;20448;-66
2023/06/11 01:58:16;;;;;;;9.95;6.10;;;17.40;99.90;;;;;;5134200;27;20030;-68
2023/06/11 02:00:42;;;;;;;9.65;7.00;;;17.40;99.90;;;;;;5134722;27;20023;-68
2023/06/11 02:03:08;;;;;;;6.82;6.15;;;17.40;99.90;;;;;;5134900;27;20019;-68
2023/06/11 02:05:35;;;;;;;9.45;6.70;;;17.30;99.90;;;;;;5134375;27;20034;-68
2023/06/11 02:08:01;;;;;;;8.02;6.05;;;17.30;99.90;;;;;;5134553;27;20031;-68
2023/06/11 02:10:26;;;;;;;7.00;6.30;;;17.30;99.90;;;;;;5133993;27;20030;-68
2023/06/11 02:12:52;;;;;;;8.88;6.80;;;17.30;99.90;;;;;;5134878;27;20031;-68
2023/06/11 02:15:19;;;;;;;9.80;6.93;;;17.30;99.90;;;;;;5134223;27;20023;-68
2023/06/11 02:17:44;;;;;;;15.25;6.80;;;17.20;99.90;;;;;;5134457;27;20052;-68
2023/06/11 02:20:11;;;;;;;10.15;7.50;;;17.20;99.90;;;;;;5118546;27;20027;-68
2023/06/11 02:22:37;;;;;;;9.18;7.25;;;17.20;99.90;;;;;;5113368;28;20074;-68
2023/06/11 02:25:03;;;;;;;9.52;6.60;;;17.20;99.90;;;;;;5112961;28;20145;-68
2023/06/11 02:27:29;;;;;;;7.35;6.60;;;17.10;99.90;;;;;;5095028;28;20059;-68
2023/06/11 02:29:56;;;;;;;9.38;5.78;;;17.10;99.90;;;;;;5113679;28;20121;-68
2023/06/11 02:32:21;;;;;;;8.30;6.78;;;17.10;99.90;;;;;;5113276;28;20027;-68
2023/06/11 02:34:47;;;;;;;9.07;6.65;;;17.20;99.90;;;;;;5114212;27;20035;-68
2023/06/11 02:37:13;;;;;;;7.38;6.38;;;17.10;99.90;;;;;;5115759;27;20027;-68
2023/06/11 02:39:39;;;;;;;7.60;6.82;;;17.10;99.90;;;;;;5118983;27;20407;-67
2023/06/11 02:42:05;;;;;;;8.55;6.25;;;17.10;99.90;;;;;;5134020;27;20478;-68
2023/06/11 02:44:31;;;;;;;7.60;6.20;;;17.10;99.90;;;;;;5133610;27;20031;-68
2023/06/11 02:46:56;;;;;;;7.40;6.35;;;17.10;99.90;;;;;;5133483;27;20408;-68
2023/06/11 02:49:22;;;;;;;8.40;6.78;;;17.10;99.90;;;;;;5133156;27;20164;-68
2023/06/11 02:51:48;;;;;;;10.02;6.78;;;17.00;99.90;;;;;;5133948;27;20056;-68
2023/06/11 02:54:14;;;;;;;11.57;7.00;;;17.00;99.90;;;;;;5133936;27;20015;-68
2023/06/11 02:56:40;;;;;;;9.40;6.97;;;17.00;99.90;;;;;;5133953;27;20033;-68
2023/06/11 02:59:06;;;;;;;10.55;6.40;;;17.00;99.90;;;;;;5133920;27;20106;-68
2023/06/11 03:01:31;;;;;;;8.55;6.78;;;17.00;99.90;;;;;;5133377;27;20027;-68
2023/06/11 03:03:57;;;;;;;10.05;6.53;;;16.90;99.90;;;;;;5133749;27;20041;-68
2023/06/11 03:06:23;;;;;;;8.93;5.95;;;16.90;99.90;;;;;;5133742;27;20472;-68
2023/06/11 03:08:48;;;;;;;6.95;5.80;;;16.90;99.90;;;;;;5133687;28;20468;-68
2023/06/11 03:11:15;;;;;;;6.53;5.93;;;16.90;99.90;;;;;;5133444;28;20061;-68
2023/06/11 03:13:41;;;;;;;11.60;6.90;;;16.90;99.90;;;;;;5133633;28;20096;-68
2023/06/11 03:16:06;;;;;;;7.55;6.47;;;16.90;99.90;;;;;;5133689;28;20027;-68
2023/06/11 03:18:32;;;;;;;6.95;6.22;;;16.80;99.90;;;;;;5133266;28;20059;-68
2023/06/11 03:20:57;;;;;;;8.27;6.32;;;16.90;99.90;;;;;;5133399;28;20028;-68
2023/06/11 03:23:23;;;;;;;7.60;5.95;;;16.80;99.90;;;;;;5132923;28;20055;-68
2023/06/11 03:25:49;;;;;;;9.43;6.00;;;16.80;99.90;;;;;;5133610;28;20507;-68
2023/06/11 03:28:15;;;;;;;7.20;6.50;;;16.80;99.90;;;;;;5133459;28;20495;-68
2023/06/11 03:30:41;;;;;;;11.43;6.65;;;16.80;99.90;;;;;;5133212;28;20491;-68
2023/06/11 03:33:07;;;;;;;10.05;7.20;;;16.80;99.90;;;;;;5133475;28;20023;-68
2023/06/11 03:35:32;;;;;;;7.35;6.35;;;16.80;99.90;;;;;;5133109;27;20024;-68
2023/06/11 03:37:58;;;;;;;7.43;6.10;;;16.80;99.90;;;;;;5138023;27;20054;-68
2023/06/11 03:40:23;;;;;;;7.70;6.03;;;16.80;99.90;;;;;;5136906;27;20106;-68
2023/06/11 03:42:49;;;;;;;7.25;6.07;;;16.70;99.90;;;;;;5137764;27;20478;-68
2023/06/11 03:45:15;;;;;;;6.47;5.78;;;16.70;99.90;;;;;;5137467;27;20458;-68
2023/06/11 03:47:40;;;;;;;8.90;5.90;;;16.70;99.90;;;;;;5118585;27;20395;-68
2023/06/11 03:50:07;;;;;;;9.77;6.85;;;16.70;99.90;;;;;;5137067;27;20019;-68
2023/06/11 03:52:32;;;;;;;6.93;5.90;;;16.70;99.90;;;;;;5136848;27;20027;-68
2023/06/11 03:54:58;;;;;;;7.00;5.95;;;16.60;99.90;;;;;;5137314;27;20519;-68
2023/06/11 03:57:24;;;;;;;10.38;6.60;;;16.60;99.90;;;;;;5136772;27;20114;-68
2023/06/11 03:59:49;;;;;;;7.38;5.70;;;16.60;99.90;;;;;;5137092;27;20025;-68
2023/06/11 04:02:15;;;;;;;9.38;6.03;;;16.60;99.90;;;;;;5136836;27;20062;-68
2023/06/11 04:04:40;;;;;;;7.70;6.60;;;16.60;99.90;;;;;;5136661;27;20471;-68
2023/06/11 04:07:06;;;;;;;8.70;6.30;;;16.50;99.90;;;;;;5136666;27;20019;-68
2023/06/11 04:09:32;;;;;;;7.70;6.07;;;16.60;99.90;;;;;;5136354;27;20027;-68
2023/06/11 04:11:57;;;;;;;8.68;5.97;;;16.50;99.90;;;;;;5135852;27;20026;-68
2023/06/11 04:14:23;;;;;;;11.32;6.75;;;16.50;99.90;;;;;;5118039;27;20051;-68
2023/06/11 04:16:49;;;;;;;7.75;5.85;;;16.50;99.90;;;;;;5116299;28;20027;-68
2023/06/11 04:19:15;;;;;;;7.30;6.43;;;16.60;99.90;;;;;;5116369;28;20034;-67
2023/06/11 04:21:41;;;;;;;8.43;6.47;;;16.50;99.90;;;;;;5115488;28;20119;-68
2023/06/11 04:24:06;;;;;;;8.27;5.68;;;16.50;99.90;;;;;;5116172;28;20122;-68
2023/06/11 04:26:32;;;;;;;9.18;6.07;;;16.60;99.90;;;;;;5118296;27;20055;-68
2023/06/11 04:28:59;;;;;;;7.63;5.88;;;16.60;99.90;;;;;;5116072;28;20452;-68
2023/06/11 04:31:26;;;;;;;7.00;6.30;;;16.60;99.90;;;;;;5115620;28;20030;-68
2023/06/11 04:33:55;;;;;;;7.80;6.07;;;16.60;99.90;;;;;;5115840;28;20036;-68
2023/06/11 04:36:24;;;;;;;7.32;6.13;;;16.70;99.90;;;;;;5115954;28;20126;-68
2023/06/11 04:38:51;;;;;;;7.97;6.28;;;16.70;99.90;;;;;;5115838;28;20118;-68
2023/06/11 04:41:17;;;;;;;7.28;6.57;;;16.70;99.90;;;;;;5121491;27;20031;-68
2023/06/11 04:43:44;;;;;;;7.43;5.93;;;16.90;99.90;;;;;;5135854;27;20049;-68
2023/06/11 04:46:10;;;;;;;7.47;5.97;;;17.10;99.90;;;;;;5135939;27;20051;-68
2023/06/11 04:48:37;;;;;;;8.32;6.10;;;17.30;99.90;;;;;;5134755;27;20532;-68
2023/06/11 04:51:04;;;;;;;6.50;5.50;;;17.70;99.90;;;;;;5135831;27;20467;-68
2023/06/11 04:53:30;;;;;;;7.55;5.57;;;18.10;99.90;;;;;;5135503;27;20471;-68
2023/06/11 04:55:59;;;;;;;9.45;6.20;;;18.50;99.90;;;;;;5135805;27;20126;-68
2023/06/11 04:58:25;;;;;;;11.77;5.97;;;18.80;99.90;;;;;;5135631;27;20019;-70
2023/06/11 05:00:53;;;;;;;9.73;5.40;;;19.10;99.90;;;;;;5135983;27;20030;-68
2023/06/11 05:03:19;;;;;;;5.68;5.07;;;19.50;99.90;;;;;;5135983;27;20023;-68
2023/06/11 05:05:51;;;;;;;7.00;5.47;;;19.60;99.90;;;;;;5135511;27;20034;-68
2023/06/11 05:08:28;;;;;;;6.38;5.28;;;19.70;99.90;;;;;;5136106;27;20046;-68
2023/06/11 05:10:56;;;;;;;9.20;5.07;;;19.90;99.90;;;;;;5135974;27;20027;-68
2023/06/11 05:13:24;;;;;;;5.13;4.60;;;20.30;99.90;;;;;;5135413;27;20534;-68
2023/06/11 05:15:50;;;;;;;5.72;5.10;;;20.30;99.90;;;;;;5135880;27;20110;-68
2023/06/11 05:18:16;;;;;;;5.75;5.15;;;20.40;99.90;;;;;;5117250;27;20356;-68
2023/06/11 05:20:42;;;;;;;8.15;5.10;;;20.30;99.90;;;;;;5135189;27;20046;-68
2023/06/11 05:23:07;;;;;;;6.50;5.80;;;20.30;99.90;;;;;;5135551;27;20106;-68
2023/06/11 05:25:33;;;;;;;6.47;5.22;;;20.10;99.90;;;;;;5135140;27;20066;-68
2023/06/11 05:28:03;;;;;;;11.85;5.40;;;19.90;99.90;;;;;;5135461;27;20039;-68
2023/06/11 05:30:33;;;;;;;6.70;6.00;;;19.90;99.90;;;;;;5135120;27;20373;-68
2023/06/11 05:32:58;;;;;;;10.68;6.15;;;19.70;99.90;;;;;;5135500;27;20148;-68
2023/06/11 05:35:25;;;;;;;8.48;6.47;;;19.60;99.90;;;;;;5135310;27;20046;-68
2023/06/11 05:37:51;;;;;;;8.25;5.65;;;19.40;99.90;;;;;;5134925;27;20027;-68
2023/06/11 05:40:17;;;;;;;7.50;5.38;;;19.40;99.90;;;;;;5135225;27;20027;-68
2023/06/11 05:42:42;;;;;;;8.93;6.38;;;19.40;99.90;;;;;;5134747;27;20019;-68
2023/06/11 05:45:08;;;;;;;7.72;6.53;;;19.30;99.90;;;;;;5134883;27;20047;-68
2023/06/11 05:47:34;;;;;;;8.82;6.32;;;19.10;99.90;;;;;;5134639;27;20027;-68
2023/06/11 05:50:00;;;;;;;8.30;6.50;;;19.10;99.90;;;;;;5134991;27;20023;-68
2023/06/11 05:52:26;;;;;;;8.27;6.93;;;19.00;99.90;;;;;;5135299;27;20110;-68
2023/06/11 05:54:52;;;;;;;9.88;6.63;;;19.00;99.90;;;;;;5134442;27;20058;-68
2023/06/11 05:57:24;;;;;;;11.13;6.45;;;19.00;99.90;;;;;;5116435;27;20054;-68
2023/06/11 05:59:50;;;;;;;7.53;6.72;;;19.00;99.90;;;;;;5134397;27;20031;-68
2023/06/11 06:02:16;;;;;;;9.82;7.28;;;19.00;99.90;;;;;;5134458;27;20020;-68
2023/06/11 06:04:45;;;;;;;7.50;6.70;;;18.90;99.90;;;;;;5134324;27;20027;-67
2023/06/11 06:07:10;;;;;;;8.38;7.00;;;18.90;99.90;;;;;;5132584;27;20027;-68
2023/06/11 06:09:36;;;;;;;7.43;6.72;;;18.80;99.90;;;;;;5114961;27;20452;-68
2023/06/11 06:12:02;;;;;;;10.23;6.90;;;18.70;99.90;;;;;;5113702;28;20028;-68
2023/06/11 06:14:27;;;;;;;13.55;7.30;;;18.70;99.90;;;;;;5114002;28;20035;-68
2023/06/11 06:16:53;;;;;;;7.10;6.40;;;18.70;99.90;;;;;;5113536;28;20451;-68
2023/06/11 06:19:18;;;;;;;7.63;6.93;;;18.60;99.90;;;;;;5113958;28;20020;-68
2023/06/11 06:21:44;;;;;;;7.80;6.80;;;18.60;99.90;;;;;;5113352;28;20357;-68
2023/06/11 06:24:11;;;;;;;10.23;6.97;;;18.60;99.90;;;;;;5113707;28;20302;-68
2023/06/11 06:26:40;;;;;;;11.40;7.82;;;18.60;99.90;;;;;;5113246;28;20031;-68
2023/06/11 06:29:09;;;;;;;7.40;6.70;;;18.60;99.90;;;;;;5113532;28;20040;-68
2023/06/11 06:31:38;;;;;;;8.00;7.20;;;18.60;99.90;;;;;;5113121;28;20468;-68
2023/06/11 06:34:04;;;;;;;8.07;7.28;;;18.50;99.90;;;;;;5116177;27;20042;-68
2023/06/11 06:36:30;;;;;;;7.70;6.95;;;18.60;99.90;;;;;;5113573;28;20024;-68
2023/06/11 06:38:55;;;;;;;8.23;7.18;;;18.60;99.90;;;;;;5113382;28;20462;-68
2023/06/11 06:41:21;;;;;;;8.18;7.22;;;18.50;99.90;;;;;;5113601;28;20073;-68
2023/06/11 06:43:47;;;;;;;7.75;6.95;;;18.50;99.90;;;;;;5094867;28;20077;-68
2023/06/11 06:46:12;;;;;;;8.05;7.13;;;18.60;99.90;;;;;;5113365;28;20108;-68
2023/06/11 06:48:38;;;;;;;9.73;7.15;;;18.60;99.90;;;;;;5113306;28;20059;-68
2023/06/11 06:51:04;;;;;;;7.63;6.85;;;18.60;99.90;;;;;;5117913;27;20027;-68
2023/06/11 06:53:30;;;;;;;8.23;7.13;;;18.60;99.90;;;;;;5133952;27;20061;-68
2023/06/11 06:55:55;;;;;;;8.85;7.55;;;18.60;99.90;;;;;;5133361;27;20523;-68
2023/06/11 06:58:21;;;;;;;7.65;6.95;;;18.60;99.90;;;;;;5133905;27;20066;-68
2023/06/11 07:00:47;;;;;;;8.75;7.13;;;18.60;99.90;;;;;;5115049;28;20455;-68
2023/06/11 07:03:13;;;;;;;8.82;7.70;;;18.60;99.90;;;;;;5133927;27;20019;-68
2023/06/11 07:05:41;;;;;;;10.57;7.30;;;18.60;99.90;;;;;;5133447;27;20494;-67
2023/06/11 07:08:08;;;;;;;9.50;7.20;;;18.60;99.90;;;;;;5133696;27;20077;-67
2023/06/11 07:10:34;;;;;;;8.88;7.97;;;18.70;99.90;;;;;;5132984;27;20031;-68
2023/06/11 07:13:00;;;;;;;9.18;7.28;;;18.60;99.90;;;;;;5133636;28;20025;-67
2023/06/11 07:15:25;;;;;;;7.97;7.18;;;18.50;99.90;;;;;;5133813;28;20030;-67
2023/06/11 07:17:51;;;;;;;9.68;7.72;;;18.60;99.90;;;;;;5133148;28;20187;-68
2023/06/11 07:20:17;;;;;;;13.82;7.88;;;18.50;99.90;;;;;;5133627;28;20069;-67
2023/06/11 07:22:42;;;;;;;10.75;7.80;;;18.50;99.90;;;;;;5132978;28;20080;-67
2023/06/11 07:25:08;;;;;;;9.40;7.45;;;18.50;99.90;;;;;;5133598;28;20019;-67
2023/06/11 07:27:34;;;;;;;9.30;7.68;;;18.50;99.90;;;;;;5133436;28;20080;-67
2023/06/11 07:30:00;;;;;;;10.43;7.03;;;18.40;99.90;;;;;;5133857;28;20019;-67
2023/06/11 07:32:25;;;;;;;9.15;7.63;;;18.40;99.90;;;;;;5133700;28;20426;-67
2023/06/11 07:34:51;;;;;;;8.57;7.65;;;18.40;99.90;;;;;;5133079;28;20035;-67
2023/06/11 07:37:16;;;;;;;8.85;7.78;;;18.30;99.90;;;;;;5133217;28;20529;-67
2023/06/11 07:39:43;;;;;;;8.73;7.82;;;18.30;99.90;;;;;;5114658;28;20023;-68
2023/06/11 07:42:08;;;;;;;8.77;7.80;;;18.40;99.90;;;;;;5133476;28;20020;-67
2023/06/11 07:44:34;;;;;;;8.48;7.50;;;18.40;99.90;;;;;;5133314;28;20417;-67
2023/06/11 07:47:00;;;;;;;10.38;8.13;;;18.40;99.90;;;;;;5133162;28;20433;-67
2023/06/11 07:49:26;;;;;;;9.73;7.72;;;18.40;99.90;;;;;;5132984;28;20110;-67
2023/06/11 07:51:51;;;;;;;8.35;7.40;;;18.40;99.90;;;;;;5132484;28;20034;-68
2023/06/11 07:54:17;;;;;;;11.38;8.38;;;18.30;99.90;;;;;;5133408;28;20019;-67
2023/06/11 07:56:46;;;;;;;11.25;7.85;;;18.30;99.90;;;;;;5132720;28;20518;-68
2023/06/11 07:59:12;;;;;;;9.43;7.80;;;18.30;99.90;;;;;;5133255;28;20047;-67
2023/06/11 08:01:38;;;;;;;8.82;7.93;;;18.30;99.90;;;;;;5132891;28;20059;-67
2023/06/11 08:04:04;;;;;;;8.77;7.75;;;18.30;99.90;;;;;;5133243;28;20099;-67
2023/06/11 08:06:30;;;;;;;8.30;7.50;;;18.30;99.90;;;;;;5133074;28;20072;-67
2023/06/11 08:08:56;;;;;;;8.70;7.90;;;18.30;99.90;;;;;;5132453;28;20038;-67
2023/06/11 08:11:22;;;;;;;9.63;8.27;;;18.40;99.90;;;;;;5132835;28;20031;-69
2023/06/11 08:13:48;;;;;;;10.57;8.45;;;18.40;99.90;;;;;;5115358;28;20051;-68
2023/06/11 08:16:15;;;;;;;10.80;8.23;;;18.40;99.90;;;;;;5112470;28;20460;-68
2023/06/11 08:18:41;;;;;;;9.13;8.23;;;18.40;99.90;;;;;;5111905;28;20107;-68
2023/06/11 08:21:06;;;;;;;9.27;7.25;;;18.40;99.90;;;;;;5112440;28;20106;-68
2023/06/11 08:23:35;;;;;;;9.07;7.50;;;18.50;99.90;;;;;;5113846;28;20027;-68
2023/06/11 08:26:01;;;;;;;11.57;7.80;;;18.50;99.90;;;;;;5115510;28;20051;-68
2023/06/11 08:28:27;;;;;;;10.55;8.07;;;18.50;99.90;;;;;;5115920;28;20086;-68
2023/06/11 08:30:54;;;;;;;9.77;7.97;;;18.60;99.90;;;;;;5115537;28;20031;-68
2023/06/11 08:33:20;;;;;;;7.57;6.88;;;18.60;99.90;;;;;;5097705;28;20427;-68
2023/06/11 08:35:47;;;;;;;8.73;7.20;;;18.60;99.90;;;;;;5117893;27;20016;-68
2023/06/11 08:38:13;;;;;;;13.65;7.00;;;18.70;99.90;;;;;;5115970;28;20084;-68
2023/06/11 08:40:42;;;;;;;8.15;7.35;;;18.60;99.90;;;;;;5115223;28;20107;-67
2023/06/11 08:43:08;;;;;;;11.82;8.10;;;18.60;99.90;;;;;;5115739;28;20489;-67
2023/06/11 08:45:34;;;;;;;8.35;7.50;;;18.70;99.90;;;;;;5115337;28;20047;-67
2023/06/11 08:48:05;;;;;;;11.90;8.32;;;18.70;99.90;;;;;;5115111;28;20035;-68
2023/06/11 08:50:31;;;;;;;8.30;7.50;;;18.70;99.90;;;;;;5130688;27;20084;-68
2023/06/11 08:53:01;;;;;;;10.00;8.20;;;18.70;99.90;;;;;;5135733;27;20528;-67
2023/06/11 08:55:28;;;;;;;8.43;7.45;;;18.80;99.90;;;;;;5136013;27;20026;-67
2023/06/11 08:57:54;;;;;;;8.23;7.22;;;18.80;99.90;;;;;;5135575;27;20023;-67
2023/06/11 09:00:21;;;;;;;9.57;8.10;;;18.90;99.90;;;;;;5136046;27;20034;-67
2023/06/11 09:02:47;;;;;;;9.85;7.95;;;18.80;99.90;;;;;;5135032;27;20027;-68
2023/06/11 09:05:12;;;;;;;10.27;7.47;;;18.80;99.90;;;;;;5135210;27;20127;-67
2023/06/11 09:07:53;;;;;;;8.60;7.75;;;18.80;99.90;;;;;;5135700;27;20033;-68
2023/06/11 09:10:20;;;;;;;7.97;7.18;;;18.90;99.90;;;;;;5136235;27;20027;-67
2023/06/11 09:12:46;;;;;;;8.05;7.07;;;18.90;99.90;;;;;;5135298;27;20027;-68
2023/06/11 09:15:12;;;;;;;9.60;7.72;;;18.90;99.90;;;;;;5135500;27;20425;-67
2023/06/11 09:17:40;;;;;;;9.20;7.28;;;18.80;99.90;;;;;;5135232;27;20031;-68
2023/06/11 09:20:16;;;;;;;10.32;7.82;;;18.90;99.90;;;;;;5134695;27;20031;-67
2023/06/11 09:22:43;;;;;;;11.23;7.70;;;18.90;99.90;;;;;;5135388;27;20026;-67
2023/06/11 09:25:19;;;;;;;8.45;7.65;;;18.90;99.90;;;;;;5135049;27;20030;-68
2023/06/11 09:27:46;;;;;;;10.32;7.60;;;18.90;99.90;;;;;;5135234;27;20043;-67
2023/06/11 09:30:19;;;;;;;8.27;7.30;;;18.90;99.90;;;;;;5135256;27;20027;-67
2023/06/11 09:32:47;;;;;;;8.77;7.38;;;19.00;99.90;;;;;;5116629;27;20070;-67
2023/06/11 09:35:14;;;;;;;10.65;7.53;;;18.90;99.90;;;;;;5134824;27;20072;-67
2023/06/11 09:37:44;;;;;;;10.05;7.43;;;19.00;99.90;;;;;;5134912;27;20424;-67
2023/06/11 09:40:14;;;;;;;8.18;7.38;;;19.00;99.90;;;;;;5135156;27;20034;-67
2023/06/11 09:42:43;;;;;;;8.68;7.45;;;19.00;99.90;;;;;;5134872;27;20473;-66
2023/06/11 09:45:16;;;;;;;7.85;6.60;;;19.00;99.90;;;;;;5134329;27;20054;-67
2023/06/11 09:47:44;;;;;;;9.05;7.78;;;19.00;99.90;;;;;;5134968;27;20035;-66
2023/06/11 09:50:16;;;;;;;10.00;7.70;;;19.10;99.90;;;;;;5135219;27;20031;-68
2023/06/11 09:52:42;;;;;;;10.75;7.85;;;19.10;99.90;;;;;;5134924;27;20110;-69
2023/06/11 09:55:09;;;;;;;8.73;7.30;;;19.20;99.90;;;;;;5134529;27;20027;-68
2023/06/11 09:57:36;;;;;;;11.35;7.90;;;19.20;99.90;;;;;;5134924;27;20486;-68
2023/06/11 10:00:05;;;;;;;8.77;7.88;;;19.20;99.90;;;;;;5134388;27;20106;-68
2023/06/11 10:02:31;;;;;;;8.30;7.50;;;19.30;99.90;;;;;;5116227;27;20027;-68
2023/06/11 10:04:57;;;;;;;8.30;7.50;;;19.30;99.90;;;;;;5131908;27;20522;-68
2023/06/11 10:07:25;;;;;;;7.68;6.93;;;19.40;99.90;;;;;;5134535;27;20023;-68
2023/06/11 10:09:52;;;;;;;8.95;7.60;;;19.40;99.90;;;;;;5133950;27;20119;-68
2023/06/11 10:12:20;;;;;;;7.93;7.20;;;19.40;99.90;;;;;;5134777;27;20022;-68
2023/06/11 10:14:52;;;;;;;10.40;7.57;;;19.40;99.90;;;;;;5134387;27;20027;-68
2023/06/11 10:17:17;;;;;;;9.65;7.38;;;19.40;99.90;;;;;;5134432;27;20467;-68
2023/06/11 10:19:48;;;;;;;8.40;7.57;;;19.50;99.90;;;;;;5134442;27;20027;-67
2023/06/11 10:22:13;;;;;;;8.57;7.68;;;19.60;99.90;;;;;;5134554;27;20023;-68
2023/06/11 10:24:39;;;;;;;8.10;7.30;;;19.60;99.90;;;;;;5134468;27;20034;-68
2023/06/11 10:27:13;;;;;;;8.63;7.38;;;19.60;99.90;;;;;;5133889;27;20034;-68
2023/06/11 10:29:57;;;;;;;8.25;7.15;;;19.60;99.90;;;;;;5134136;27;20035;-67
2023/06/11 10:32:23;;;;;;;10.60;7.38;;;19.60;99.90;;;;;;5134200;27;20031;-67
2023/06/11 10:35:12;;;;;;;8.02;7.22;;;19.60;99.90;;;;;;5115335;27;20364;-70
2023/06/11 10:37:40;;;;;;;8.15;7.35;;;19.60;99.90;;;;;;5133104;27;20034;-68
2023/06/11 10:40:08;;;;;;;9.73;7.57;;;19.60;99.90;;;;;;5131262;27;20080;-68
2023/06/11 10:42:44;;;;;;;9.50;7.70;;;19.60;99.90;;;;;;5115701;27;20023;-67
2023/06/11 10:45:11;;;;;;;8.23;7.43;;;19.60;99.90;;;;;;5132889;27;20120;-68
2023/06/11 10:47:45;;;;;;;9.55;7.95;;;19.60;99.90;;;;;;5133575;27;20047;-68
2023/06/11 10:50:15;;;;;;;8.57;7.78;;;19.70;99.90;;;;;;5127649;27;20351;-68
2023/06/11 10:53:05;;;;;;;8.10;7.30;;;19.70;99.90;;;;;;5113243;28;20554;-68
2023/06/11 10:55:32;;;;;;;8.68;7.82;;;19.80;99.90;;;;;;5113234;28;20400;-68
2023/06/11 10:58:00;;;;;;;9.00;7.53;;;19.80;99.90;;;;;;5112676;28;20426;-68
2023/06/11 11:00:28;;;;;;;8.73;7.90;;;19.90;99.90;;;;;;5112925;28;20472;-68
2023/06/11 11:02:57;;;;;;;9.68;8.15;;;19.90;99.90;;;;;;5112401;28;20391;-68
2023/06/11 11:05:23;;;;;;;11.43;8.30;;;19.80;99.90;;;;;;5113227;28;20099;-68
2023/06/11 11:07:49;;;;;;;9.70;7.55;;;19.90;99.90;;;;;;5113006;28;20042;-68
2023/06/11 11:10:20;;;;;;;9.57;8.07;;;19.90;99.90;;;;;;5112622;28;20452;-67
2023/06/11 11:12:47;;;;;;;7.85;7.05;;;19.90;99.90;;;;;;5113065;28;20028;-67
2023/06/11 11:15:13;;;;;;;9.00;8.07;;;19.90;99.90;;;;;;5112547;28;20357;-68
2023/06/11 11:17:40;;;;;;;8.45;7.65;;;20.00;99.90;;;;;;5112837;28;20024;-68
2023/06/11 11:20:07;;;;;;;10.43;8.07;;;20.00;99.90;;;;;;5112217;28;20475;-68
2023/06/11 11:22:34;;;;;;;9.98;9.00;;;20.00;99.90;;;;;;5113013;28;20066;-67
2023/06/11 11:25:00;;;;;;;11.85;8.50;;;20.10;99.90;;;;;;5112228;28;20364;-68
2023/06/11 11:27:26;;;;;;;10.23;7.80;;;20.10;99.90;;;;;;5112904;28;20035;-68
2023/06/11 11:29:54;;;;;;;8.38;7.38;;;20.20;99.90;;;;;;5112562;28;20411;-70
2023/06/11 11:32:21;;;;;;;10.95;8.38;;;20.20;99.90;;;;;;5112780;28;20111;-67
2023/06/11 11:34:47;;;;;;;9.57;8.52;;;20.20;99.90;;;;;;5112942;28;20024;-67
2023/06/11 11:37:12;;;;;;;10.20;7.57;;;20.20;99.90;;;;;;5112415;28;20392;-67
2023/06/11 11:39:38;;;;;;;9.95;8.43;;;20.20;99.90;;;;;;5112986;28;20028;-68
2023/06/11 11:42:08;;;;;;;12.50;8.95;;;20.20;99.90;;;;;;5112329;28;20059;-68
2023/06/11 11:44:41;;;;;;;9.50;8.60;;;20.30;99.90;;;;;;5112584;28;20520;-68
2023/06/11 11:47:18;;;;;;;8.35;7.28;;;20.30;99.90;;;;;;5093517;28;20054;-68
2023/06/11 11:49:52;;;;;;;7.70;6.90;;;20.40;99.90;;;;;;5112569;28;20392;-67
2023/06/11 11:52:21;;;;;;;9.77;7.90;;;20.50;99.90;;;;;;5112284;28;20027;-68
2023/06/11 11:54:46;;;;;;;8.35;7.43;;;20.50;99.90;;;;;;5112458;28;20035;-68
2023/06/11 11:57:12;;;;;;;7.50;6.80;;;20.50;99.90;;;;;;5113207;28;20048;-68
2023/06/11 11:59:39;;;;;;;11.07;7.93;;;20.60;99.90;;;;;;5116487;28;20106;-68
2023/06/11 12:02:06;;;;;;;9.20;7.72;;;20.70;99.90;;;;;;5116081;28;20019;-68
2023/06/11 12:04:46;;;;;;;9.70;7.93;;;20.80;99.90;;;;;;5126285;27;20039;-68
2023/06/11 12:07:14;;;;;;;8.85;7.50;;;20.80;99.90;;;;;;5136772;27;20038;-68
2023/06/11 12:09:40;;;;;;;10.27;7.88;;;21.00;99.90;;;;;;5136900;27;20118;-68
2023/06/11 12:12:07;;;;;;;10.23;7.13;;;21.00;99.90;;;;;;5136533;27;20102;-68
2023/06/11 12:14:37;;;;;;;11.05;8.43;;;21.10;99.90;;;;;;5136630;27;20031;-68
2023/06/11 12:17:04;;;;;;;8.82;7.93;;;21.10;99.90;;;;;;5136362;27;20102;-68
2023/06/11 12:19:31;;;;;;;8.30;7.35;;;21.20;99.90;;;;;;5136737;27;20031;-68
2023/06/11 12:21:57;;;;;;;7.82;6.78;;;21.20;99.90;;;;;;5117849;27;20391;-69
2023/06/11 12:24:23;;;;;;;9.20;7.45;;;21.20;99.00;;;;;;5136630;27;20019;-68
2023/06/11 12:26:50;;;;;;;8.80;7.53;;;21.10;98.70;;;;;;5136274;27;20030;-68
2023/06/11 12:29:16;;;;;;;8.10;7.30;;;21.20;99.60;;;;;;5136064;27;20160;-68
2023/06/11 12:31:42;;;;;;;9.13;7.55;;;21.20;99.00;;;;;;5136533;27;20440;-68
2023/06/11 12:34:10;;;;;;;9.38;7.78;;;21.20;98.90;;;;;;5136006;27;20030;-68
2023/06/11 12:36:36;;;;;;;8.90;8.00;;;21.20;99.20;;;;;;5136420;27;20015;-68
2023/06/11 12:39:04;;;;;;;9.25;7.90;;;21.20;98.90;;;;;;5135985;27;20444;-68
2023/06/11 12:41:31;;;;;;;9.13;7.85;;;21.20;98.80;;;;;;5132615;27;20450;-67
2023/06/11 12:43:57;;;;;;;7.65;6.85;;;21.30;99.60;;;;;;5136092;27;20027;-68
2023/06/11 12:46:23;;;;;;;8.85;7.70;;;21.20;98.30;;;;;;5136008;27;20126;-67